createdAt,value
2018-01-26T00:00:50.597Z,971.13
2018-01-26T00:02:00.578Z,971.13
2018-01-26T00:03:10.301Z,971.15
2018-01-26T00:04:20.281Z,971.15
2018-01-26T00:05:30.261Z,971.14
2018-01-26T00:06:40.248Z,971.17
2018-01-26T00:07:50.230Z,971.18
2018-01-26T00:09:00.211Z,971.22
2018-01-26T00:10:10.199Z,971.21
2018-01-26T00:11:19.918Z,971.19
2018-01-26T00:12:29.899Z,971.25
2018-01-26T00:13:39.091Z,971.23
2018-01-26T00:14:49.067Z,971.22
2018-01-26T00:15:59.045Z,971.25
2018-01-26T00:17:08.496Z,971.31
2018-01-26T00:18:18.217Z,971.32
2018-01-26T00:19:28.200Z,971.33
2018-01-26T00:20:37.921Z,971.36
2018-01-26T00:21:47.384Z,971.38
2018-01-26T00:22:57.102Z,971.38
2018-01-26T00:24:07.090Z,971.37
2018-01-26T00:25:16.809Z,971.38
2018-01-26T00:26:26.527Z,971.4
2018-01-26T00:27:36.247Z,971.42
2018-01-26T00:28:46.230Z,971.44
2018-01-26T00:29:55.946Z,971.49
2018-01-26T00:31:05.929Z,971.51
2018-01-26T00:32:15.385Z,971.51
2018-01-26T00:33:25.106Z,971.53
2018-01-26T00:34:35.088Z,971.56
2018-01-26T00:35:44.871Z,971.6
2018-01-26T00:36:54.850Z,971.6
2018-01-26T00:38:04.831Z,971.58
2018-01-26T00:39:14.540Z,971.6
2018-01-26T00:40:24.519Z,971.6
2018-01-26T00:41:34.557Z,971.62
2018-01-26T00:42:44.279Z,971.62
2018-01-26T00:43:54.258Z,971.62
2018-01-26T00:45:04.282Z,971.61
2018-01-26T00:46:14.053Z,971.66
2018-01-26T00:47:23.772Z,971.62
2018-01-26T00:48:33.765Z,971.66
2018-01-26T00:49:43.747Z,971.68
2018-01-26T00:50:53.513Z,971.65
2018-01-26T00:52:03.230Z,971.71
2018-01-26T00:53:12.946Z,971.7
2018-01-26T00:54:22.401Z,971.73
2018-01-26T00:55:32.390Z,971.65
2018-01-26T00:56:42.383Z,971.69
2018-01-26T00:57:52.368Z,971.7
2018-01-26T00:59:02.088Z,971.67
2018-01-26T01:00:12.074Z,971.69
2018-01-26T01:01:21.532Z,971.7
2018-01-26T01:02:31.251Z,971.76
2018-01-26T01:03:41.236Z,971.7
2018-01-26T01:04:50.959Z,971.73
2018-01-26T01:06:00.941Z,971.74
2018-01-26T01:07:10.702Z,971.76
2018-01-26T01:08:20.761Z,971.74
2018-01-26T01:09:30.750Z,971.78
2018-01-26T01:10:40.474Z,971.79
2018-01-26T01:11:50.455Z,971.85
2018-01-26T01:13:00.177Z,971.84
2018-01-26T01:14:10.164Z,971.85
2018-01-26T01:15:19.892Z,971.84
2018-01-26T01:16:29.875Z,971.83
2018-01-26T01:17:39.858Z,971.86
2018-01-26T01:18:49.837Z,971.84
2018-01-26T01:19:59.554Z,971.89
2018-01-26T01:21:09.542Z,971.83
2018-01-26T01:22:19.046Z,971.83
2018-01-26T01:23:29.035Z,971.79
2018-01-26T01:24:39.015Z,971.77
2018-01-26T01:25:48.728Z,971.79
2018-01-26T01:26:58.188Z,971.81
2018-01-26T01:28:08.007Z,971.85
2018-01-26T01:29:17.730Z,971.88
2018-01-26T01:30:27.712Z,971.86
2018-01-26T01:31:37.702Z,971.8
2018-01-26T01:32:47.689Z,971.79
2018-01-26T01:33:57.142Z,971.84
2018-01-26T01:35:06.860Z,971.85
2018-01-26T01:36:16.840Z,971.84
2018-01-26T01:37:26.824Z,971.88
2018-01-26T01:38:36.805Z,971.87
2018-01-26T01:39:46.788Z,971.91
2018-01-26T01:40:56.507Z,971.95
2018-01-26T01:42:06.234Z,971.92
2018-01-26T01:43:15.953Z,971.9
2018-01-26T01:44:25.935Z,971.94
2018-01-26T01:45:35.916Z,971.94
2018-01-26T01:46:45.632Z,971.93
2018-01-26T01:47:55.624Z,971.95
2018-01-26T01:49:05.616Z,971.99
2018-01-26T01:50:15.325Z,972.01
2018-01-26T01:51:25.308Z,972.08
2018-01-26T01:52:34.499Z,972.05
2018-01-26T01:53:44.214Z,972.09
2018-01-26T01:54:53.932Z,972.11
2018-01-26T01:56:03.916Z,972.08
2018-01-26T01:57:13.899Z,972.15
2018-01-26T01:58:23.616Z,972.16
2018-01-26T01:59:33.605Z,972.16
2018-01-26T02:00:43.329Z,972.12
2018-01-26T02:01:53.048Z,972.14
2018-01-26T02:03:03.334Z,972.21
2018-01-26T02:04:13.050Z,972.19
2018-01-26T02:05:23.028Z,972.18
2018-01-26T02:06:33.081Z,972.18
2018-01-26T02:07:43.062Z,972.2
2018-01-26T02:08:53.037Z,972.15
2018-01-26T02:10:03.023Z,972.14
2018-01-26T02:11:12.480Z,972.2
2018-01-26T02:12:22.463Z,972.17
2018-01-26T02:13:32.445Z,972.2
2018-01-26T02:14:42.474Z,972.19
2018-01-26T02:15:52.186Z,972.18
2018-01-26T02:17:01.902Z,972.16
2018-01-26T02:18:11.624Z,972.18
2018-01-26T02:19:21.657Z,972.14
2018-01-26T02:20:31.745Z,972.2
2018-01-26T02:21:41.466Z,972.24
2018-01-26T02:22:51.189Z,972.22
2018-01-26T02:24:00.916Z,972.25
2018-01-26T02:25:10.370Z,972.24
2018-01-26T02:26:20.137Z,972.29
2018-01-26T02:27:30.125Z,972.27
2018-01-26T02:28:40.104Z,972.3
2018-01-26T02:29:49.831Z,972.31
2018-01-26T02:30:59.550Z,972.27
2018-01-26T02:32:09.533Z,972.28
2018-01-26T02:33:19.529Z,972.35
2018-01-26T02:34:29.516Z,972.32
2018-01-26T02:35:39.503Z,972.34
2018-01-26T02:36:49.494Z,972.35
2018-01-26T02:37:59.314Z,972.35
2018-01-26T02:39:08.768Z,972.36
2018-01-26T02:40:18.494Z,972.42
2018-01-26T02:41:28.490Z,972.42
2018-01-26T02:42:38.209Z,972.4
2018-01-26T02:43:48.257Z,972.44
2018-01-26T02:44:58.242Z,972.42
2018-01-26T02:46:07.700Z,972.43
2018-01-26T02:47:17.426Z,972.46
2018-01-26T02:48:27.419Z,972.42
2018-01-26T02:49:36.668Z,972.38
2018-01-26T02:50:46.431Z,972.44
2018-01-26T02:51:56.420Z,972.45
2018-01-26T02:53:06.404Z,972.46
2018-01-26T02:54:15.863Z,972.46
2018-01-26T02:55:25.317Z,972.51
2018-01-26T02:56:35.305Z,972.57
2018-01-26T02:57:45.036Z,972.56
2018-01-26T02:58:55.021Z,972.58
2018-01-26T03:00:05.007Z,972.61
2018-01-26T03:01:15.248Z,972.59
2018-01-26T03:02:24.965Z,972.63
2018-01-26T03:03:34.687Z,972.66
2018-01-26T03:04:44.404Z,972.7
2018-01-26T03:05:54.394Z,972.69
2018-01-26T03:07:04.158Z,972.72
2018-01-26T03:08:14.139Z,972.71
2018-01-26T03:09:23.597Z,972.75
2018-01-26T03:10:33.314Z,972.78
2018-01-26T03:11:43.296Z,972.75
2018-01-26T03:12:53.278Z,972.74
2018-01-26T03:14:03.270Z,972.76
2018-01-26T03:15:13.256Z,972.79
2018-01-26T03:16:23.236Z,972.78
2018-01-26T03:17:32.959Z,972.82
2018-01-26T03:18:42.674Z,972.82
2018-01-26T03:19:52.656Z,972.86
2018-01-26T03:21:02.698Z,972.87
2018-01-26T03:22:12.419Z,972.85
2018-01-26T03:23:22.398Z,972.93
2018-01-26T03:24:32.179Z,972.91
2018-01-26T03:25:41.893Z,972.89
2018-01-26T03:26:51.616Z,972.9
2018-01-26T03:28:01.597Z,972.89
2018-01-26T03:29:11.318Z,972.91
2018-01-26T03:30:21.403Z,972.98
2018-01-26T03:31:31.388Z,973.01
2018-01-26T03:32:40.578Z,973
2018-01-26T03:33:50.560Z,973.02
2018-01-26T03:35:00.539Z,973.03
2018-01-26T03:36:09.991Z,973.04
2018-01-26T03:37:19.706Z,973.05
2018-01-26T03:38:29.426Z,973.08
2018-01-26T03:39:38.882Z,973.11
2018-01-26T03:40:48.602Z,973.05
2018-01-26T03:41:57.792Z,973.1
2018-01-26T03:43:07.509Z,973.07
2018-01-26T03:44:17.222Z,973.06
2018-01-26T03:45:26.940Z,973.11
2018-01-26T03:46:36.657Z,973.09
2018-01-26T03:47:46.112Z,973.1
2018-01-26T03:48:55.830Z,973.12
2018-01-26T03:50:05.815Z,973.13
2018-01-26T03:51:15.533Z,973.1
2018-01-26T03:52:25.518Z,973.15
2018-01-26T03:53:35.499Z,973.15
2018-01-26T03:54:45.214Z,973.14
2018-01-26T03:55:55.204Z,973.19
2018-01-26T03:57:05.189Z,973.22
2018-01-26T03:58:14.372Z,973.24
2018-01-26T03:59:24.153Z,973.31
2018-01-26T04:00:34.135Z,973.27
2018-01-26T04:04:16.430Z,973.43
2018-01-26T04:05:26.462Z,973.5
2018-01-26T04:06:36.437Z,973.51
2018-01-26T04:07:46.470Z,973.5
2018-01-26T04:08:56.185Z,973.51
2018-01-26T04:10:05.908Z,973.52
2018-01-26T04:11:15.904Z,973.51
2018-01-26T04:12:25.894Z,973.5
2018-01-26T04:13:35.609Z,973.5
2018-01-26T04:14:45.593Z,973.52
2018-01-26T04:15:55.310Z,973.52
2018-01-26T04:17:05.296Z,973.55
2018-01-26T04:18:14.747Z,973.56
2018-01-26T04:19:24.728Z,973.57
2018-01-26T04:20:34.456Z,973.63
2018-01-26T04:21:44.170Z,973.6
2018-01-26T04:22:54.241Z,973.66
2018-01-26T04:24:04.220Z,973.62
2018-01-26T04:25:13.935Z,973.62
2018-01-26T04:26:23.656Z,973.68
2018-01-26T04:27:33.646Z,973.67
2018-01-26T04:28:43.628Z,973.64
2018-01-26T04:29:53.610Z,973.7
2018-01-26T04:31:03.329Z,973.72
2018-01-26T04:32:13.314Z,973.73
2018-01-26T04:33:23.293Z,973.75
2018-01-26T04:34:33.275Z,973.77
2018-01-26T04:35:42.729Z,973.82
2018-01-26T04:36:52.708Z,973.82
2018-01-26T04:38:02.684Z,973.84
2018-01-26T04:39:12.699Z,973.86
2018-01-26T04:40:22.677Z,973.88
2018-01-26T04:41:32.656Z,973.93
2018-01-26T04:42:42.633Z,973.91
2018-01-26T04:43:52.614Z,973.95
2018-01-26T04:45:02.700Z,973.96
2018-01-26T04:46:12.421Z,974
2018-01-26T04:47:22.137Z,974
2018-01-26T04:48:32.120Z,974.04
2018-01-26T04:49:41.846Z,973.98
2018-01-26T04:50:51.826Z,974
2018-01-26T04:52:01.812Z,974.01
2018-01-26T04:53:11.529Z,974
2018-01-26T04:54:21.512Z,974.08
2018-01-26T04:55:31.228Z,974.04
2018-01-26T04:56:41.208Z,974.04
2018-01-26T04:57:51.190Z,974.04
2018-01-26T04:59:01.168Z,974.07
2018-01-26T05:00:10.886Z,974.05
2018-01-26T05:01:20.601Z,974.07
2018-01-26T05:02:30.052Z,974.09
2018-01-26T05:03:40.048Z,974.11
2018-01-26T05:04:50.032Z,974.17
2018-01-26T05:05:59.743Z,974.17
2018-01-26T05:07:08.938Z,974.17
2018-01-26T05:08:18.668Z,974.18
2018-01-26T05:09:28.644Z,974.23
2018-01-26T05:10:38.624Z,974.26
2018-01-26T05:11:48.340Z,974.23
2018-01-26T05:12:58.057Z,974.26
2018-01-26T05:14:07.773Z,974.31
2018-01-26T05:15:17.230Z,974.29
2018-01-26T05:16:27.209Z,974.31
2018-01-26T05:17:37.238Z,974.3
2018-01-26T05:18:47.215Z,974.34
2018-01-26T05:19:57.205Z,974.36
2018-01-26T05:21:07.200Z,974.37
2018-01-26T05:22:16.918Z,974.38
2018-01-26T05:23:26.905Z,974.43
2018-01-26T05:24:36.624Z,974.45
2018-01-26T05:25:46.338Z,974.47
2018-01-26T05:26:56.315Z,974.48
2018-01-26T05:28:06.029Z,974.47
2018-01-26T05:29:15.484Z,974.49
2018-01-26T05:30:24.935Z,974.54
2018-01-26T05:31:34.916Z,974.56
2018-01-26T05:32:44.367Z,974.61
2018-01-26T05:33:54.086Z,974.62
2018-01-26T05:35:03.797Z,974.62
2018-01-26T05:36:12.986Z,974.62
2018-01-26T05:37:23.066Z,974.63
2018-01-26T05:38:33.049Z,974.7
2018-01-26T05:39:43.030Z,974.67
2018-01-26T05:40:53.018Z,974.69
2018-01-26T05:42:02.474Z,974.67
2018-01-26T05:43:11.763Z,974.66
2018-01-26T05:44:21.779Z,974.68
2018-01-26T05:45:31.496Z,974.66
2018-01-26T05:46:41.539Z,974.71
2018-01-26T05:47:51.255Z,974.68
2018-01-26T05:49:01.238Z,974.68
2018-01-26T05:50:10.951Z,974.71
2018-01-26T05:51:20.668Z,974.75
2018-01-26T05:52:30.650Z,974.75
2018-01-26T05:53:40.626Z,974.76
2018-01-26T05:54:50.606Z,974.76
2018-01-26T05:56:00.344Z,974.79
2018-01-26T05:57:10.126Z,974.8
2018-01-26T05:58:19.856Z,974.81
2018-01-26T05:59:29.840Z,974.86
2018-01-26T06:00:39.871Z,974.88
2018-01-26T06:01:49.586Z,974.88
2018-01-26T06:02:59.303Z,974.88
2018-01-26T06:04:09.019Z,974.85
2018-01-26T06:05:18.999Z,974.83
2018-01-26T06:06:28.980Z,974.85
2018-01-26T06:07:38.435Z,974.85
2018-01-26T06:08:47.883Z,974.85
2018-01-26T06:09:57.874Z,974.86
2018-01-26T06:11:07.590Z,974.88
2018-01-26T06:12:17.302Z,974.93
2018-01-26T06:13:27.024Z,974.96
2018-01-26T06:14:37.052Z,975
2018-01-26T06:15:47.032Z,974.98
2018-01-26T06:16:57.014Z,975.01
2018-01-26T06:18:06.998Z,975
2018-01-26T06:19:16.717Z,975.05
2018-01-26T06:20:26.433Z,975.08
2018-01-26T06:21:36.148Z,975.05
2018-01-26T06:22:46.122Z,975.1
2018-01-26T06:23:56.102Z,975.13
2018-01-26T06:25:06.136Z,975.15
2018-01-26T06:26:15.864Z,975.18
2018-01-26T06:27:25.581Z,975.15
2018-01-26T06:28:35.564Z,975.16
2018-01-26T06:29:45.592Z,975.19
2018-01-26T06:30:55.572Z,975.22
2018-01-26T06:32:05.024Z,975.22
2018-01-26T06:33:15.119Z,975.25
2018-01-26T06:34:24.834Z,975.25
2018-01-26T06:35:34.022Z,975.23
2018-01-26T06:36:43.734Z,975.26
2018-01-26T06:37:53.450Z,975.21
2018-01-26T06:39:03.441Z,975.23
2018-01-26T06:40:13.158Z,975.21
2018-01-26T06:41:22.606Z,975.16
2018-01-26T06:42:32.061Z,975.21
2018-01-26T06:43:41.777Z,975.22
2018-01-26T06:44:51.761Z,975.26
2018-01-26T06:46:01.482Z,975.31
2018-01-26T06:47:10.666Z,975.31
2018-01-26T06:48:20.384Z,975.34
2018-01-26T06:49:30.410Z,975.32
2018-01-26T06:50:40.390Z,975.37
2018-01-26T06:51:50.372Z,975.36
2018-01-26T06:53:00.134Z,975.37
2018-01-26T06:54:10.120Z,975.38
2018-01-26T06:55:19.838Z,975.4
2018-01-26T06:56:29.826Z,975.42
2018-01-26T06:57:39.806Z,975.52
2018-01-26T06:58:49.785Z,975.51
2018-01-26T06:59:59.772Z,975.54
2018-01-26T07:01:08.964Z,975.49
2018-01-26T07:02:18.684Z,975.51
2018-01-26T07:03:28.402Z,975.58
2018-01-26T07:04:38.385Z,975.61
2018-01-26T07:05:48.378Z,975.55
2018-01-26T07:06:58.355Z,975.62
2018-01-26T07:08:08.069Z,975.62
2018-01-26T07:09:17.518Z,975.63
2018-01-26T07:10:27.232Z,975.66
2018-01-26T07:11:36.952Z,975.65
2018-01-26T07:12:46.935Z,975.66
2018-01-26T07:13:56.914Z,975.63
2018-01-26T07:15:06.371Z,975.64
2018-01-26T07:16:16.356Z,975.67
2018-01-26T07:17:26.345Z,975.7
2018-01-26T07:18:36.068Z,975.73
2018-01-26T07:19:45.521Z,975.79
2018-01-26T07:20:55.240Z,975.81
2018-01-26T07:22:04.960Z,975.84
2018-01-26T07:23:14.939Z,975.85
2018-01-26T07:24:24.651Z,975.89
2018-01-26T07:25:34.369Z,975.94
2018-01-26T07:26:44.347Z,975.96
2018-01-26T07:27:54.063Z,975.99
2018-01-26T07:29:04.050Z,975.99
2018-01-26T07:30:13.500Z,976.05
2018-01-26T07:31:23.486Z,976.05
2018-01-26T07:32:33.242Z,976.09
2018-01-26T07:33:42.437Z,976.14
2018-01-26T07:34:52.418Z,976.14
2018-01-26T07:36:02.405Z,976.21
2018-01-26T07:37:12.384Z,976.24
2018-01-26T07:38:22.362Z,976.27
2018-01-26T07:39:32.508Z,976.32
2018-01-26T07:40:42.488Z,976.32
2018-01-26T07:41:52.215Z,976.36
2018-01-26T07:43:01.990Z,976.34
2018-01-26T07:44:11.710Z,976.32
2018-01-26T07:45:22.231Z,976.34
2018-01-26T07:46:32.207Z,976.34
2018-01-26T07:47:41.930Z,976.33
2018-01-26T07:48:51.914Z,976.35
2018-01-26T07:50:01.893Z,976.33
2018-01-26T07:51:11.709Z,976.33
2018-01-26T07:52:21.689Z,976.31
2018-01-26T07:53:31.406Z,976.32
2018-01-26T07:54:41.393Z,976.33
2018-01-26T07:55:51.407Z,976.33
2018-01-26T07:57:01.170Z,976.33
2018-01-26T07:58:10.890Z,976.35
2018-01-26T07:59:20.606Z,976.42
2018-01-26T08:00:30.321Z,976.41
2018-01-26T08:01:40.039Z,976.47
2018-01-26T08:02:50.022Z,976.49
2018-01-26T08:04:00.021Z,976.54
2018-01-26T08:05:10.011Z,976.51
2018-01-26T08:06:20.281Z,976.52
2018-01-26T08:07:29.943Z,976.57
2018-01-26T08:08:39.658Z,976.59
2018-01-26T08:09:49.374Z,976.6
2018-01-26T08:10:59.354Z,976.62
2018-01-26T08:12:09.333Z,976.65
2018-01-26T08:13:19.334Z,976.65
2018-01-26T08:14:29.048Z,976.68
2018-01-26T08:15:38.760Z,976.71
2018-01-26T08:16:48.736Z,976.73
2018-01-26T08:17:58.720Z,976.73
2018-01-26T08:19:08.440Z,976.68
2018-01-26T08:20:18.420Z,976.77
2018-01-26T08:21:28.400Z,976.7
2018-01-26T08:22:38.382Z,976.75
2018-01-26T08:23:48.358Z,976.78
2018-01-26T08:24:58.071Z,976.86
2018-01-26T08:26:07.844Z,976.85
2018-01-26T08:27:17.299Z,976.91
2018-01-26T08:28:27.276Z,976.91
2018-01-26T08:29:37.259Z,976.94
2018-01-26T08:30:47.246Z,976.97
2018-01-26T08:31:57.240Z,977.02
2018-01-26T08:33:06.951Z,977.06
2018-01-26T08:34:16.673Z,977.07
2018-01-26T08:35:26.652Z,977.13
2018-01-26T08:36:36.630Z,977.13
2018-01-26T08:37:46.349Z,977.14
2018-01-26T08:38:56.326Z,977.22
2018-01-26T08:40:06.040Z,977.2
2018-01-26T08:41:16.019Z,977.23
2018-01-26T08:42:25.737Z,977.24
2018-01-26T08:43:35.716Z,977.28
2018-01-26T08:44:45.692Z,977.28
2018-01-26T08:45:55.683Z,977.32
2018-01-26T08:47:05.393Z,977.33
2018-01-26T08:48:15.113Z,977.37
2018-01-26T08:49:25.092Z,977.37
2018-01-26T08:50:35.081Z,977.4
2018-01-26T08:51:45.061Z,977.39
2018-01-26T08:52:55.042Z,977.41
2018-01-26T08:54:04.755Z,977.43
2018-01-26T08:55:14.213Z,977.48
2018-01-26T08:56:24.200Z,977.5
2018-01-26T08:57:33.927Z,977.5
2018-01-26T08:58:43.637Z,977.44
2018-01-26T08:59:53.617Z,977.46
2018-01-26T09:01:03.072Z,977.5
2018-01-26T09:02:13.058Z,977.51
2018-01-26T09:03:23.036Z,977.54
2018-01-26T09:04:32.482Z,977.54
2018-01-26T09:05:42.468Z,977.54
2018-01-26T09:06:52.506Z,977.6
2018-01-26T09:08:02.235Z,977.56
2018-01-26T09:09:11.687Z,977.59
2018-01-26T09:10:20.875Z,977.61
2018-01-26T09:11:30.598Z,977.62
2018-01-26T09:12:40.351Z,977.63
2018-01-26T09:13:50.329Z,977.68
2018-01-26T09:15:00.311Z,977.7
2018-01-26T09:16:10.293Z,977.7
2018-01-26T09:17:20.009Z,977.68
2018-01-26T09:18:30.888Z,977.69
2018-01-26T09:19:40.871Z,977.69
2018-01-26T09:20:50.587Z,977.7
2018-01-26T09:22:00.308Z,977.72
2018-01-26T09:23:10.291Z,977.75
2018-01-26T09:24:20.013Z,977.79
2018-01-26T09:25:29.995Z,977.83
2018-01-26T09:26:39.706Z,977.84
2018-01-26T09:27:49.425Z,977.88
2018-01-26T09:28:59.156Z,977.94
2018-01-26T09:30:09.138Z,977.95
2018-01-26T09:31:19.117Z,977.94
2018-01-26T09:32:28.836Z,977.96
2018-01-26T09:33:38.571Z,977.92
2018-01-26T09:34:48.282Z,977.99
2018-01-26T09:35:58.004Z,978.04
2018-01-26T09:37:07.720Z,978
2018-01-26T09:38:17.710Z,978.03
2018-01-26T09:39:27.692Z,978.03
2018-01-26T09:40:37.694Z,978.07
2018-01-26T09:41:47.410Z,978.07
2018-01-26T09:42:57.388Z,978.12
2018-01-26T09:44:07.381Z,978.1
2018-01-26T09:45:17.101Z,978.08
2018-01-26T09:46:27.077Z,978.08
2018-01-26T09:47:37.062Z,978.05
2018-01-26T09:48:46.780Z,978.08
2018-01-26T09:49:56.523Z,978.09
2018-01-26T09:51:05.712Z,978.09
2018-01-26T09:52:15.429Z,978.1
2018-01-26T09:53:24.617Z,978.05
2018-01-26T09:54:34.337Z,978.08
2018-01-26T09:55:44.054Z,978.05
2018-01-26T09:56:54.042Z,978.09
2018-01-26T09:58:04.023Z,978.11
2018-01-26T09:59:13.741Z,978.12
2018-01-26T10:00:23.196Z,978.13
2018-01-26T10:01:32.650Z,978.17
2018-01-26T10:02:42.366Z,978.22
2018-01-26T10:03:52.083Z,978.24
2018-01-26T10:05:01.582Z,978.31
2018-01-26T10:06:11.349Z,978.36
2018-01-26T10:07:21.065Z,978.37
2018-01-26T10:08:30.785Z,978.36
2018-01-26T10:09:40.497Z,978.35
2018-01-26T10:10:50.318Z,978.35
2018-01-26T10:12:00.303Z,978.35
2018-01-26T10:13:10.297Z,978.35
2018-01-26T10:14:20.270Z,978.36
2018-01-26T10:15:29.990Z,978.35
2018-01-26T10:16:39.707Z,978.36
2018-01-26T10:17:49.426Z,978.41
2018-01-26T10:18:59.410Z,978.48
2018-01-26T10:20:08.861Z,978.53
2018-01-26T10:21:18.843Z,978.55
2018-01-26T10:22:28.831Z,978.62
2018-01-26T10:23:38.812Z,978.61
2018-01-26T10:24:48.268Z,978.62
2018-01-26T10:25:57.984Z,978.54
2018-01-26T10:27:07.717Z,978.54
2018-01-26T10:28:17.702Z,978.54
2018-01-26T10:29:27.158Z,978.58
2018-01-26T10:30:37.141Z,978.62
2018-01-26T10:31:46.857Z,978.61
2018-01-26T10:32:56.863Z,978.58
2018-01-26T10:34:06.629Z,978.67
2018-01-26T10:35:16.365Z,978.66
2018-01-26T10:36:26.105Z,978.71
2018-01-26T10:37:36.110Z,978.71
2018-01-26T10:38:46.094Z,978.7
2018-01-26T10:39:55.819Z,978.72
2018-01-26T10:41:05.542Z,978.78
2018-01-26T10:42:14.996Z,978.82
2018-01-26T10:43:24.714Z,978.84
2018-01-26T10:44:34.431Z,978.84
2018-01-26T10:45:44.416Z,978.84
2018-01-26T10:46:54.131Z,978.83
2018-01-26T10:48:04.116Z,978.85
2018-01-26T10:49:13.837Z,978.83
2018-01-26T10:50:23.562Z,978.76
2018-01-26T10:51:33.555Z,978.75
2018-01-26T10:52:43.277Z,978.74
2018-01-26T10:53:52.998Z,978.68
2018-01-26T10:55:02.718Z,978.69
2018-01-26T10:56:12.709Z,978.74
2018-01-26T10:57:22.703Z,978.79
2018-01-26T10:58:32.696Z,978.78
2018-01-26T10:59:42.412Z,978.79
2018-01-26T11:00:52.128Z,978.79
2018-01-26T11:02:01.590Z,978.81
2018-01-26T11:03:11.783Z,978.8
2018-01-26T11:04:20.980Z,978.8
2018-01-26T11:05:30.698Z,978.81
2018-01-26T11:06:40.689Z,978.83
2018-01-26T11:07:50.678Z,978.81
2018-01-26T11:09:00.768Z,978.82
2018-01-26T11:10:10.858Z,978.82
2018-01-26T11:11:20.582Z,978.83
2018-01-26T11:12:29.240Z,978.82
2018-01-26T11:13:38.701Z,978.84
2018-01-26T11:14:48.420Z,978.79
2018-01-26T11:15:57.344Z,978.78
2018-01-26T11:17:07.070Z,978.82
2018-01-26T11:18:17.054Z,978.89
2018-01-26T11:19:27.040Z,978.89
2018-01-26T11:20:36.865Z,978.89
2018-01-26T11:21:46.584Z,978.93
2018-01-26T11:22:56.575Z,978.95
2018-01-26T11:24:06.302Z,978.97
2018-01-26T11:25:16.290Z,979
2018-01-26T11:26:26.280Z,979
2018-01-26T11:27:36.311Z,979.04
2018-01-26T11:28:46.032Z,979.07
2018-01-26T11:29:55.790Z,979.1
2018-01-26T11:31:04.978Z,979.12
2018-01-26T11:32:14.698Z,979.13
2018-01-26T11:33:24.741Z,979.15
2018-01-26T11:34:34.459Z,979.15
2018-01-26T11:35:44.450Z,979.17
2018-01-26T11:36:54.179Z,979.11
2018-01-26T11:38:03.996Z,979.13
2018-01-26T11:39:14.052Z,979.19
2018-01-26T11:40:23.771Z,979.17
2018-01-26T11:41:33.488Z,979.16
2018-01-26T11:42:43.203Z,979.19
2018-01-26T11:43:53.238Z,979.21
2018-01-26T11:45:02.964Z,979.22
2018-01-26T11:46:12.417Z,979.17
2018-01-26T11:47:22.396Z,979.19
2018-01-26T11:48:32.112Z,979.2
2018-01-26T11:49:42.103Z,979.23
2018-01-26T11:50:52.096Z,979.25
2018-01-26T11:52:02.089Z,979.24
2018-01-26T11:53:11.809Z,979.24
2018-01-26T11:54:21.529Z,979.3
2018-01-26T11:55:31.515Z,979.33
2018-01-26T11:56:41.500Z,979.35
2018-01-26T11:57:51.490Z,979.31
2018-01-26T11:59:01.215Z,979.33
2018-01-26T12:00:10.941Z,979.33
2018-01-26T12:01:20.665Z,979.33
2018-01-26T12:02:30.662Z,979.37
2018-01-26T12:03:40.400Z,979.42
2018-01-26T12:04:50.384Z,979.36
2018-01-26T12:06:00.108Z,979.34
2018-01-26T12:07:09.569Z,979.33
2018-01-26T12:08:19.292Z,979.38
2018-01-26T12:09:29.017Z,979.41
2018-01-26T12:10:39.007Z,979.43
2018-01-26T12:11:49.004Z,979.38
2018-01-26T12:12:58.998Z,979.32
2018-01-26T12:14:08.469Z,979.37
2018-01-26T12:15:17.931Z,979.39
2018-01-26T12:16:27.918Z,979.41
2018-01-26T12:17:37.651Z,979.53
2018-01-26T12:18:47.648Z,979.48
2018-01-26T12:19:57.645Z,979.49
2018-01-26T12:21:07.379Z,979.62
2018-01-26T12:22:17.116Z,979.54
2018-01-26T12:23:26.842Z,979.63
2018-01-26T12:24:36.570Z,979.66
2018-01-26T12:25:45.765Z,979.62
2018-01-26T12:26:55.759Z,979.56
2018-01-26T12:28:05.483Z,979.56
2018-01-26T12:29:15.474Z,979.57
2018-01-26T12:30:25.532Z,979.62
2018-01-26T12:31:34.992Z,979.59
2018-01-26T12:32:44.983Z,979.58
2018-01-26T12:33:54.715Z,979.6
2018-01-26T12:35:03.920Z,979.63
2018-01-26T12:36:13.929Z,979.62
2018-01-26T12:37:23.916Z,979.63
2018-01-26T12:38:33.905Z,979.66
2018-01-26T12:39:43.642Z,979.65
2018-01-26T12:40:53.635Z,979.68
2018-01-26T12:42:03.097Z,979.66
2018-01-26T12:43:12.830Z,979.71
2018-01-26T12:44:22.550Z,979.72
2018-01-26T12:45:32.558Z,979.67
2018-01-26T12:46:42.552Z,979.71
2018-01-26T12:47:52.336Z,979.76
2018-01-26T12:49:01.797Z,979.81
2018-01-26T12:50:11.258Z,979.81
2018-01-26T12:51:20.983Z,979.83
2018-01-26T12:52:30.978Z,979.82
2018-01-26T12:53:40.973Z,979.8
2018-01-26T12:54:50.958Z,979.8
2018-01-26T12:56:00.945Z,979.8
2018-01-26T12:57:10.935Z,979.79
2018-01-26T12:58:20.924Z,979.74
2018-01-26T12:59:30.747Z,979.89
2018-01-26T13:00:40.735Z,979.79
2018-01-26T13:01:50.720Z,979.86
2018-01-26T13:03:00.708Z,979.84
2018-01-26T13:04:10.434Z,979.84
2018-01-26T13:05:19.897Z,979.83
2018-01-26T13:06:29.616Z,979.87
2018-01-26T13:07:39.344Z,979.86
2018-01-26T13:08:48.804Z,979.82
2018-01-26T13:09:58.792Z,979.86
2018-01-26T13:11:08.246Z,979.89
2018-01-26T13:12:17.965Z,979.95
2018-01-26T13:13:27.423Z,979.98
2018-01-26T13:14:37.149Z,980.01
2018-01-26T13:15:47.137Z,979.98
2018-01-26T13:16:57.124Z,980.01
2018-01-26T13:18:07.113Z,980.01
2018-01-26T13:19:17.112Z,980.02
2018-01-26T13:20:26.835Z,980.04
2018-01-26T13:21:36.820Z,980.01
2018-01-26T13:22:46.540Z,980.05
2018-01-26T13:23:56.531Z,980.09
2018-01-26T13:25:05.729Z,980.06
2018-01-26T13:26:15.454Z,980.09
2018-01-26T13:27:25.176Z,980.12
2018-01-26T13:28:34.960Z,980.14
2018-01-26T13:29:44.684Z,980.09
2018-01-26T13:30:53.878Z,980.13
2018-01-26T13:32:03.864Z,980.14
2018-01-26T13:33:13.853Z,980.15
2018-01-26T13:34:23.839Z,980.13
2018-01-26T13:35:33.563Z,980.14
2018-01-26T13:36:43.550Z,980.1
2018-01-26T13:37:53.583Z,980.12
2018-01-26T13:39:03.302Z,980.1
2018-01-26T13:40:13.286Z,980.11
2018-01-26T13:41:23.273Z,980.16
2018-01-26T13:42:32.999Z,980.17
2018-01-26T13:43:42.720Z,980.17
2018-01-26T13:44:52.439Z,980.19
2018-01-26T13:46:02.425Z,980.24
2018-01-26T13:47:12.146Z,980.25
2018-01-26T13:48:21.608Z,980.28
2018-01-26T13:49:31.599Z,980.34
2018-01-26T13:50:41.055Z,980.31
2018-01-26T13:51:51.046Z,980.31
2018-01-26T13:53:00.503Z,980.32
2018-01-26T13:54:10.493Z,980.35
2018-01-26T13:55:20.225Z,980.38
2018-01-26T13:56:30.215Z,980.37
2018-01-26T13:57:39.934Z,980.4
2018-01-26T13:58:49.396Z,980.4
2018-01-26T13:59:59.112Z,980.39
2018-01-26T14:01:08.304Z,980.42
2018-01-26T14:02:17.497Z,980.4
2018-01-26T14:03:27.218Z,980.41
2018-01-26T14:04:37.203Z,980.39
2018-01-26T14:05:47.191Z,980.42
2018-01-26T14:06:56.911Z,980.42
2018-01-26T14:08:06.632Z,980.42
2018-01-26T14:09:16.086Z,980.46
2018-01-26T14:10:26.108Z,980.5
2018-01-26T14:11:35.830Z,980.51
2018-01-26T14:12:45.816Z,980.53
2018-01-26T14:13:55.843Z,980.58
2018-01-26T14:15:05.303Z,980.59
2018-01-26T14:16:15.024Z,980.6
2018-01-26T14:17:24.741Z,980.62
2018-01-26T14:18:34.787Z,980.66
2018-01-26T14:19:44.187Z,980.65
2018-01-26T14:20:54.197Z,980.66
2018-01-26T14:22:03.651Z,980.67
2018-01-26T14:23:13.105Z,980.67
2018-01-26T14:24:22.831Z,980.68
2018-01-26T14:25:32.544Z,980.7
2018-01-26T14:26:42.584Z,980.71
2018-01-26T14:27:52.304Z,980.76
2018-01-26T14:29:02.026Z,980.76
2018-01-26T14:30:11.749Z,980.81
2018-01-26T14:31:21.536Z,980.8
2018-01-26T14:32:31.822Z,980.86
2018-01-26T14:33:41.544Z,980.88
2018-01-26T14:34:51.528Z,980.87
2018-01-26T14:36:01.531Z,980.87
2018-01-26T14:37:11.255Z,980.87